Richmond, Minnesota
Current Conditions -  °F | °C
As of 2:34 AM on Thursday 27 Nov 2014 (Local Time) from KPEX Reporting Station
Clear Clear  
Wind Chill: -22°   Ceiling: Unl
Heat Index: -7°   Visibility: 10mi
Dew Point: -10°   Wind: 8mph
Humidity: 84%   Direction: 290°WNW
Pressure: 30.49"   Gusts: NA
Location:  45.45°N, 94.52°W
Report Text: KPEX 270834Z AUTO 29007KT 10SM CLR M21/M24 A3049 RMK AO2 T12151236
Loading
Personal Weather Stations






























Interactive Weather Map New forecast layout! Learn more

10-Day Weather Forecast

Advertisements
Track Severe Weather on mobile